Time;durP1;ratioP1;P1;durP2;ratioP2;P2;SDS_P1;SDS_P2;PMS_P1;PMS_P2;Temp;Humidity;BMP_temperature;BMP_pressure;BME280_temperature;BME280_humidity;BME280_pressure;Samples;Min_cycle;Max_cycle;Signal;HPM_P1;HPM_P2
2022/09/05 00:00:13;;;;;;;420.30;219.40;;;16.60;99.90;;;;;;5051113;28;20171;-51
2022/09/05 00:02:58;;;;;;;382.43;197.17;;;16.50;99.90;;;;;;5053677;28;20238;-51
2022/09/05 00:05:43;;;;;;;391.73;201.83;;;16.40;99.90;;;;;;5052554;28;20539;-51
2022/09/05 00:08:18;;;;;;;423.23;217.43;;;16.30;99.90;;;;;;5049538;28;21794;-51
2022/09/05 00:10:44;;;;;;;415.73;215.47;;;;;;;;;;5053848;28;20177;-51
2022/09/05 00:13:20;;;;;;;428.83;220.93;;;16.20;1.00;;;;;;5048102;28;20183;-51
2022/09/05 00:16:06;;;;;;;399.53;205.33;;;16.30;1.00;;;;;;5049075;28;20539;-51
2022/09/05 00:19:00;;;;;;;380.37;194.97;;;16.30;1.00;;;;;;5050449;28;20256;-51
2022/09/05 00:21:45;;;;;;;428.97;225.43;;;16.40;1.00;;;;;;5046932;28;20211;-51
2022/09/05 00:24:42;;;;;;;406.17;212.20;;;16.30;1.00;;;;;;5049217;28;20822;-52
2022/09/05 00:27:08;;;;;;;456.80;240.10;;;;;;;;;;5048152;28;20190;-51
2022/09/05 00:29:48;;;;;;;379.93;193.90;;;16.10;1.00;;;;;;5051448;28;20210;-51
2022/09/05 00:32:41;;;;;;;406.67;213.00;;;16.20;1.00;;;;;;5054067;28;20190;-51
2022/09/05 00:35:25;;;;;;;418.33;216.90;;;16.10;1.00;;;;;;5044701;28;20321;-52
2022/09/05 00:37:52;;;;;;;394.53;203.77;;;16.10;1.00;;;;;;5046371;28;20635;-51
2022/09/05 00:40:36;;;;;;;379.80;199.80;;;16.10;1.00;;;;;;5051081;28;20333;-51
2022/09/05 00:43:06;;;;;;;416.17;215.33;;;16.10;13.80;;;;;;5046887;28;20213;-51
2022/09/05 00:45:54;;;;;;;392.90;207.30;;;16.00;99.90;;;;;;5057753;28;20341;-52
2022/09/05 00:48:47;;;;;;;383.90;198.73;;;16.10;33.70;;;;;;5049707;28;20192;-51
2022/09/05 00:51:13;;;;;;;406.50;212.03;;;;;;;;;;5043660;28;20229;-51
2022/09/05 00:54:00;;;;;;;377.77;196.90;;;16.00;99.90;;;;;;5055228;28;20901;-52
2022/09/05 00:56:44;;;;;;;425.27;216.77;;;15.90;99.90;;;;;;5051129;28;20610;-51
2022/09/05 00:59:39;;;;;;;447.50;228.07;;;16.10;99.90;;;;;;5050019;28;20187;-51
2022/09/05 01:02:16;;;;;;;442.03;229.20;;;15.90;99.90;;;;;;5055074;28;20674;-51
2022/09/05 01:04:53;;;;;;;386.97;198.60;;;15.90;1.00;;;;;;5057713;28;20230;-51
2022/09/05 01:07:38;;;;;;;377.10;194.37;;;16.00;1.00;;;;;;5056951;28;20179;-51
2022/09/05 01:10:40;;;;;;;408.03;212.07;;;15.80;1.00;;;;;;5061709;28;20259;-51
2022/09/05 01:13:06;;;;;;;397.10;202.13;;;;;;;;;;5049309;28;20247;-51
2022/09/05 01:15:55;;;;;;;423.60;221.37;;;15.80;1.00;;;;;;5054426;28;20708;-51
2022/09/05 01:18:33;;;;;;;423.53;220.37;;;15.80;1.00;;;;;;5051656;28;20192;-51
2022/09/05 01:20:59;;;;;;;437.23;225.50;;;;;;;;;;5050521;28;20654;-51
2022/09/05 01:23:35;;;;;;;394.20;199.97;;;15.80;1.00;;;;;;5053901;28;20269;-51
2022/09/05 01:26:21;;;;;;;431.23;220.07;;;15.70;1.00;;;;;;5049159;28;20206;-51
2022/09/05 01:28:59;;;;;;;373.77;191.17;;;15.70;1.00;;;;;;5055192;28;20574;-52
2022/09/05 01:31:43;;;;;;;372.07;189.67;;;15.70;1.00;;;;;;5056685;28;20511;-52
2022/09/05 01:34:26;;;;;;;448.70;233.07;;;15.60;1.00;;;;;;5050082;28;20205;-51
2022/09/05 01:37:11;;;;;;;395.93;206.27;;;15.60;1.00;;;;;;5052849;28;20673;-51
2022/09/05 01:39:51;;;;;;;391.43;204.33;;;15.60;1.00;;;;;;5051027;28;20285;-49
2022/09/05 01:42:40;;;;;;;431.63;223.63;;;16.00;93.30;;;;;;5050093;28;20646;-51
2022/09/05 01:45:32;;;;;;;416.97;212.00;;;15.50;5.10;;;;;;5051917;28;20256;-51
2022/09/05 01:48:11;;;;;;;413.30;215.20;;;15.40;99.90;;;;;;5054699;28;21504;-51
2022/09/05 01:50:52;;;;;;;380.57;194.67;;;15.40;1.00;;;;;;5057707;28;20206;-51
2022/09/05 01:53:45;;;;;;;414.63;212.50;;;15.30;99.90;;;;;;5050133;28;20640;-51
2022/09/05 01:56:43;;;;;;;412.17;212.07;;;15.20;99.90;;;;;;5048933;28;20225;-51
2022/09/05 01:59:26;;;;;;;422.03;216.57;;;15.50;1.00;;;;;;5052451;28;20607;-51
2022/09/05 02:02:15;;;;;;;378.43;191.53;;;15.40;1.00;;;;;;5053216;28;20339;-51
2022/09/05 02:04:42;;;;;;;400.73;206.37;;;;;;;;;;5054381;28;20214;-51
2022/09/05 02:07:41;;;;;;;409.17;215.53;;;15.50;1.00;;;;;;5047208;28;20282;-51
2022/09/05 02:10:32;;;;;;;381.83;198.37;;;13.90;99.90;;;;;;5055187;28;20655;-51
2022/09/05 02:13:39;;;;;;;385.23;192.60;;;15.50;99.90;;;;;;5052193;28;21577;-51
2022/09/05 02:16:22;;;;;;;460.30;220.43;;;15.60;30.70;;;;;;5061879;23;20601;-52
2022/09/05 02:19:05;;;;;;;375.93;178.23;;;15.60;1.00;;;;;;5056150;28;20240;-52
2022/09/05 02:21:39;;;;;;;397.40;187.70;;;15.50;34.50;;;;;;5051617;28;20184;-52
2022/09/05 02:24:21;;;;;;;392.03;187.53;;;16.00;1.00;;;;;;5055751;28;20208;-52
2022/09/05 02:27:04;;;;;;;404.50;193.30;;;15.50;26.50;;;;;;5052673;28;20209;-52
2022/09/05 02:29:49;;;;;;;357.73;172.90;;;15.60;99.90;;;;;;5056789;28;20182;-52
2022/09/05 02:32:31;;;;;;;382.47;183.40;;;15.60;1.00;;;;;;5055810;28;20638;-52
2022/09/05 02:35:08;;;;;;;383.93;183.17;;;15.50;1.00;;;;;;5054545;28;20353;-53
2022/09/05 02:37:35;;;;;;;373.50;180.07;;;;;;;;;;5052156;28;20561;-52
2022/09/05 02:40:34;;;;;;;374.43;178.07;;;15.40;1.00;;;;;;5056723;28;20183;-52
2022/09/05 02:43:16;;;;;;;406.57;193.70;;;15.60;1.00;;;;;;5045899;28;20558;-52
2022/09/05 02:46:06;;;;;;;379.33;179.70;;;15.50;1.00;;;;;;5052198;28;20264;-52
2022/09/05 02:48:53;;;;;;;388.37;185.87;;;15.50;1.00;;;;;;5051528;28;20187;-52
2022/09/05 02:51:30;;;;;;;422.27;204.97;;;15.60;1.00;;;;;;5051692;28;20218;-52
2022/09/05 02:54:03;;;;;;;355.30;172.00;;;15.50;1.00;;;;;;5056242;28;20562;-52
2022/09/05 02:56:38;;;;;;;333.00;158.57;;;15.50;1.00;;;;;;5061766;28;20186;-52
2022/09/05 02:59:36;;;;;;;407.70;191.07;;;15.50;1.00;;;;;;5050230;28;20566;-52
2022/09/05 03:02:19;;;;;;;367.40;171.53;;;15.50;1.00;;;;;;5055662;28;20297;-52
2022/09/05 03:05:13;;;;;;;361.73;170.97;;;15.50;1.00;;;;;;5048874;28;20241;-52
2022/09/05 03:08:02;;;;;;;382.73;178.83;;;15.20;1.00;;;;;;5049793;28;20654;-52
2022/09/05 03:10:52;;;;;;;395.07;188.77;;;15.50;71.60;;;;;;5055351;28;20617;-52
2022/09/05 03:13:23;;;;;;;429.70;201.67;;;15.50;7.70;;;;;;5055106;28;20201;-52
2022/09/05 03:16:00;;;;;;;415.07;197.00;;;15.60;99.90;;;;;;5054041;28;20270;-52
2022/09/05 03:19:06;;;;;;;377.60;177.47;;;15.50;34.50;;;;;;5055428;28;20182;-52
2022/09/05 03:22:16;;;;;;;355.27;171.80;;;15.50;1.00;;;;;;5051668;28;20524;-52
2022/09/05 03:25:12;;;;;;;424.57;200.97;;;15.70;99.90;;;;;;5042737;28;20687;-52
2022/09/05 03:28:25;;;;;;;373.30;177.60;;;15.50;27.30;;;;;;5059039;28;20186;-52
2022/09/05 03:31:14;;;;;;;383.07;181.00;;;15.50;63.00;;;;;;5056339;28;20176;-52
2022/09/05 03:33:53;;;;;;;379.60;181.00;;;15.60;96.10;;;;;;5045648;28;20202;-52
2022/09/05 03:36:49;;;;;;;374.00;178.00;;;15.40;99.90;;;;;;5051805;28;20276;-52
2022/09/05 03:39:52;;;;;;;418.90;197.63;;;15.30;99.90;;;;;;5051486;28;20587;-52
2022/09/05 03:42:37;;;;;;;420.97;199.60;;;15.30;99.90;;;;;;5055167;28;20179;-52
2022/09/05 03:45:27;;;;;;;382.40;182.37;;;15.30;1.00;;;;;;5052829;28;20705;-52
2022/09/05 03:48:32;;;;;;;373.43;177.30;;;15.20;1.00;;;;;;5058719;28;20574;-53
2022/09/05 03:51:12;;;;;;;369.63;175.50;;;15.20;1.00;;;;;;5052179;28;20532;-52
2022/09/05 03:54:08;;;;;;;364.57;175.00;;;15.10;99.90;;;;;;5053550;28;20456;-52
2022/09/05 03:57:02;;;;;;;364.50;174.10;;;15.10;9.10;;;;;;5054812;28;20190;-52
2022/09/05 03:59:27;;;;;;;418.67;197.43;;;;;;;;;;5049715;28;20326;-52
2022/09/05 04:02:03;;;;;;;408.07;196.93;;;15.00;29.60;;;;;;5053726;28;20221;-52
2022/09/05 04:04:37;;;;;;;416.03;196.37;;;15.10;99.90;;;;;;5051184;28;20253;-52
2022/09/05 04:07:07;;;;;;;422.70;201.60;;;14.80;99.90;;;;;;5054796;28;20241;-52
2022/09/05 04:09:44;;;;;;;417.00;199.07;;;14.80;1.00;;;;;;5046373;28;20717;-52
2022/09/05 04:12:17;;;;;;;421.67;199.90;;;14.70;1.00;;;;;;5054455;28;20550;-52
2022/09/05 04:14:56;;;;;;;387.97;184.57;;;14.70;22.90;;;;;;5052982;28;20190;-52
2022/09/05 04:17:42;;;;;;;424.17;202.20;;;14.80;1.00;;;;;;5056763;28;20593;-52
2022/09/05 04:20:13;;;;;;;397.50;186.80;;;14.50;65.60;;;;;;5063294;28;20213;-52
2022/09/05 04:22:56;;;;;;;390.53;184.87;;;14.50;67.50;;;;;;5063770;28;20246;-52
2022/09/05 04:25:44;;;;;;;430.47;201.83;;;14.40;1.00;;;;;;5054905;28;20213;-52
2022/09/05 04:28:31;;;;;;;410.30;193.27;;;14.30;99.90;;;;;;5060202;28;20708;-52
2022/09/05 04:30:59;;;;;;;414.17;192.80;;;;;;;;;;5055334;28;20183;-52
2022/09/05 04:33:31;;;;;;;435.53;203.47;;;;;;;;;;5056120;28;21691;-52
2022/09/05 04:36:16;;;;;;;432.17;201.67;;;;;;;;;;5058220;28;20183;-52
2022/09/05 04:38:43;;;;;;;376.10;174.77;;;;;;;;;;5060777;28;20183;-52
2022/09/05 04:41:17;;;;;;;388.80;176.53;;;;;;;;;;5056462;28;20670;-52
2022/09/05 04:43:48;;;;;;;402.17;187.50;;;;;;;;;;5062111;28;20214;-52
2022/09/05 04:46:17;;;;;;;426.13;195.87;;;;;;;;;;5054777;28;20625;-52
2022/09/05 04:49:02;;;;;;;396.23;185.73;;;;;;;;;;5056383;28;20183;-52
2022/09/05 04:51:28;;;;;;;358.63;168.50;;;;;;;;;;5058147;28;20365;-52
2022/09/05 04:54:13;;;;;;;401.83;189.50;;;;;;;;;;5059249;28;20792;-52
2022/09/05 04:56:42;;;;;;;384.63;176.37;;;;;;;;;;5056159;28;20187;-52
2022/09/05 04:59:15;;;;;;;360.13;166.73;;;;;;;;;;5060629;28;20175;-52
2022/09/05 05:01:44;;;;;;;380.00;174.43;;;;;;;;;;5060568;28;20665;-52
2022/09/05 05:04:15;;;;;;;451.73;203.80;;;;;;;;;;5053039;28;20390;-52
2022/09/05 05:06:54;;;;;;;420.57;186.17;;;;;;;;;;5059269;28;20500;-53
2022/09/05 05:09:25;;;;;;;424.77;188.80;;;;;;;;;;5064115;28;20186;-52
2022/09/05 05:12:00;;;;;;;354.83;157.40;;;;;;;;;;5065701;28;20232;-52
2022/09/05 05:14:29;;;;;;;392.17;168.67;;;;;;;;;;5057490;28;20710;-52
2022/09/05 05:16:59;;;;;;;452.57;191.57;;;;;;;;;;5058904;28;20562;-53
2022/09/05 05:19:28;;;;;;;398.87;176.97;;;;;;;;;;5061051;28;20190;-52
2022/09/05 05:21:56;;;;;;;381.03;175.20;;;;;;;;;;5058097;28;20190;-53
2022/09/05 05:24:28;;;;;;;400.47;178.97;;;;;;;;;;5055307;28;20260;-53
2022/09/05 05:26:59;;;;;;;389.47;172.23;;;;;;;;;;5058514;28;20220;-53
2022/09/05 05:29:37;;;;;;;387.47;174.73;;;;;;;;;;5059227;28;20277;-53
2022/09/05 05:32:04;;;;;;;524.83;222.03;;;;;;;;;;5022824;28;20183;-52
2022/09/05 05:34:40;;;;;;;424.37;189.83;;;;;;;;;;5044825;28;20221;-53
2022/09/05 05:37:18;;;;;;;381.30;179.13;;;;;;;;;;5053512;28;20185;-52
2022/09/05 05:39:46;;;;;;;392.07;185.93;;;;;;;;;;5054581;28;20511;-52
2022/09/05 05:42:17;;;;;;;414.50;194.50;;;;;;;;;;5054234;28;20191;-53
2022/09/05 05:44:47;;;;;;;364.10;171.80;;;;;;;;;;5057769;28;20203;-52
2022/09/05 05:47:19;;;;;;;417.57;193.77;;;;;;;;;;5051656;28;20262;-54
2022/09/05 05:49:58;;;;;;;433.93;205.23;;;;;;;;;;5055643;28;20195;-54
2022/09/05 05:52:27;;;;;;;433.00;199.47;;;;;;;;;;5056208;28;20182;-53
2022/09/05 05:54:59;;;;;;;415.00;193.80;;;;;;;;;;5047485;28;20309;-53
2022/09/05 05:57:37;;;;;;;422.53;198.20;;;;;;;;;;5056135;28;20183;-53
2022/09/05 06:00:17;;;;;;;442.50;207.03;;;;;;;;;;5048750;28;20537;-53
2022/09/05 06:03:00;;;;;;;398.00;181.40;;;;;;;;;;5046012;28;20183;-53
2022/09/05 06:05:34;;;;;;;439.77;199.67;;;;;;;;;;5044925;28;20721;-52
2022/09/05 06:08:07;;;;;;;402.87;192.27;;;;;;;;;;5049843;28;20179;-52
2022/09/05 06:10:49;;;;;;;417.83;194.10;;;;;;;;;;5055775;28;20620;-52
2022/09/05 06:13:40;;;;;;;385.50;180.87;;;;;;;;;;5049855;28;20187;-52
2022/09/05 06:16:25;;;;;;;510.37;238.80;;;;;;;;;;5053464;28;20596;-51
2022/09/05 06:19:10;;;;;;;402.97;194.20;;;;;;;;;;5052810;28;20596;-51
2022/09/05 06:21:36;;;;;;;422.43;199.90;;;;;;;;;;5038488;28;20210;-54
2022/09/05 06:24:28;;;;;;;428.50;200.47;;;;;;;;;;5046242;28;20211;-51
2022/09/05 06:27:12;;;;;;;398.13;190.40;;;;;;;;;;5059474;28;21083;-51
2022/09/05 06:29:41;;;;;;;491.77;227.17;;;;;;;;;;5043819;28;20221;-51
2022/09/05 06:32:16;;;;;;;419.40;198.33;;;;;;;;;;5051652;28;20207;-52
2022/09/05 06:34:45;;;;;;;522.30;246.37;;;;;;;;;;5051877;28;20259;-52
2022/09/05 06:37:30;;;;;;;394.50;190.73;;;;;;;;;;5053661;28;20209;-52
2022/09/05 06:40:15;;;;;;;435.43;204.90;;;;;;;;;;5043819;28;20183;-52
2022/09/05 06:43:00;;;;;;;420.70;202.57;;;;;;;;;;5046929;28;20236;-50
2022/09/05 06:45:34;;;;;;;432.57;207.03;;;;;;;;;;5056398;28;20214;-51
2022/09/05 06:48:09;;;;;;;413.57;196.50;;;;;;;;;;5051347;28;20183;-50
2022/09/05 06:50:56;;;;;;;421.30;205.47;;;;;;;;;;5059996;28;20593;-51
2022/09/05 06:53:38;;;;;;;415.20;196.87;;;;;;;;;;5059274;28;20179;-50
2022/09/05 06:56:33;;;;;;;421.83;196.73;;;;;;;;;;5050365;28;20190;-50
2022/09/05 06:58:59;;;;;;;388.53;192.23;;;;;;;;;;5048968;28;20237;-50
2022/09/05 07:01:32;;;;;;;424.60;206.40;;;;;;;;;;5054102;28;20226;-50
2022/09/05 07:04:11;;;;;;;456.77;219.63;;;;;;;;;;5048226;28;20230;-50
2022/09/05 07:06:46;;;;;;;393.83;192.85;;;;;;;;;;5059279;28;20207;-50
2022/09/05 07:09:20;;;;;;;387.00;190.23;;;;;;;;;;5054275;28;20193;-50
2022/09/05 07:11:58;;;;;;;426.10;207.00;;;;;;;;;;5056046;28;20447;-50
2022/09/05 07:14:27;;;;;;;384.55;183.85;;;;;;;;;;5040975;28;20215;-53
2022/09/05 07:17:13;;;;;;;469.80;211.30;;;;;;;;;;5052951;28;20205;-52
2022/09/05 07:19:55;;;;;;;439.47;204.13;;;;;;;;;;5046667;28;20190;-52
2022/09/05 07:22:26;;;;;;;453.37;204.60;;;;;;;;;;5044943;28;20190;-52
2022/09/05 07:24:53;;;;;;;408.20;194.23;;;;;;;;;;5049596;28;20253;-52
2022/09/05 07:27:38;;;;;;;455.73;219.93;;;;;;;;;;5043060;28;20187;-52
2022/09/05 07:30:05;;;;;;;404.90;195.50;;;;;;;;;;5059291;28;20635;-52
2022/09/05 07:32:34;;;;;;;386.00;188.00;;;;;;;;;;5057020;28;20189;-52
2022/09/05 07:35:02;;;;;;;494.38;239.15;;;;;;;;;;5044460;28;20360;-52
2022/09/05 07:37:34;;;;;;;473.55;226.68;;;;;;;;;;5046341;28;20559;-52
2022/09/05 07:40:01;;;;;;;461.25;225.52;;;;;;;;;;5044490;28;20174;-52
2022/09/05 07:42:35;;;;;;;451.73;221.70;;;;;;;;;;5050406;28;20203;-52
2022/09/05 07:45:10;;;;;;;394.85;193.40;;;;;;;;;;5057627;28;20290;-53
2022/09/05 07:47:40;;;;;;;438.05;215.38;;;;;;;;;;5052145;28;20654;-53
2022/09/05 07:50:07;;;;;;;388.17;190.05;;;;;;;;;;5049268;28;20171;-52
2022/09/05 07:52:37;;;;;;;401.98;200.57;;;;;;;;;;5054894;28;20217;-52
2022/09/05 07:55:11;;;;;;;390.80;192.77;;;;;;;;;;5053030;28;20268;-52
2022/09/05 07:57:40;;;;;;;487.45;241.55;;;;;;;;;;5039930;28;23004;-52
2022/09/05 08:00:09;;;;;;;404.65;201.82;;;;;;;;;;5050734;28;20174;-52
2022/09/05 08:02:39;;;;;;;470.30;235.43;;;;;;;;;;5046978;28;20236;-52
2022/09/05 08:05:05;;;;;;;481.80;238.25;;;;;;;;;;5051667;28;20291;-52
2022/09/05 08:07:34;;;;;;;419.77;212.23;;;;;;;;;;5047270;28;20749;-52
2022/09/05 08:10:07;;;;;;;414.95;207.48;;;;;;;;;;5044846;28;20186;-52
2022/09/05 08:12:35;;;;;;;405.15;208.45;;;;;;;;;;5048302;28;20531;-53
2022/09/05 08:15:01;;;;;;;411.70;208.18;;;;;;;;;;5049274;28;20203;-52
2022/09/05 08:17:27;;;;;;;459.42;233.57;;;;;;;;;;5048453;28;20285;-52
2022/09/05 08:20:12;;;;;;;425.58;217.23;;;;;;;;;;5048199;28;20178;-52
2022/09/05 08:22:45;;;;;;;409.85;212.23;;;;;;;;;;5055583;28;20517;-52
2022/09/05 08:25:24;;;;;;;418.38;210.45;;;;;;;;;;5057379;28;20241;-52
2022/09/05 08:27:50;;;;;;;366.23;187.45;;;;;;;;;;5048287;28;20246;-52
2022/09/05 08:30:16;;;;;;;424.98;219.98;;;;;;;;;;5052159;28;20261;-52
2022/09/05 08:32:54;;;;;;;420.65;220.07;;;;;;;;;;5055497;28;20325;-52
2022/09/05 08:35:40;;;;;;;416.08;225.38;;;;;;;;;;5047801;28;20607;-52
2022/09/05 08:38:07;;;;;;;480.17;242.23;;;;;;;;;;5054465;28;20981;-52
2022/09/05 08:40:50;;;;;;;412.90;215.88;;;;;;;;;;5054919;28;20187;-52
2022/09/05 08:43:37;;;;;;;485.08;235.88;;;;;;;;;;5043875;28;20190;-53
2022/09/05 08:46:13;;;;;;;381.60;206.27;;;;;;;;;;5041666;28;20203;-53
2022/09/05 08:48:57;;;;;;;409.45;218.35;;;;;;;;;;5047050;28;21094;-52
2022/09/05 08:51:26;;;;;;;383.85;208.73;;;;;;;;;;5050225;28;20206;-52
2022/09/05 08:53:58;;;;;;;370.35;205.20;;;;;;;;;;5041056;28;20883;-52
2022/09/05 08:56:27;;;;;;;460.75;238.32;;;;;;;;;;5049284;28;20230;-52
2022/09/05 08:59:02;;;;;;;389.40;213.45;;;;;;;;;;5052138;28;20241;-53
2022/09/05 09:01:28;;;;;;;418.42;224.65;;;;;;;;;;5046508;28;21637;-52
2022/09/05 09:03:54;;;;;;;415.00;233.68;;;;;;;;;;5050955;28;20292;-52
2022/09/05 09:06:29;;;;;;;422.05;224.50;;;;;;;;;;5057380;28;20303;-52
2022/09/05 09:09:10;;;;;;;390.77;212.98;;;;;;;;;;5066838;28;20278;-52
2022/09/05 09:11:36;;;;;;;462.95;233.48;;;;;;;;;;5053811;28;20329;-52
2022/09/05 09:14:21;;;;;;;431.85;229.10;;;;;;;;;;5047237;28;20729;-52
2022/09/05 09:16:53;;;;;;;398.30;214.77;;;;;;;;;;5056104;28;20226;-53
2022/09/05 09:19:31;;;;;;;399.92;216.10;;;;;;;;;;5051983;28;20223;-53
2022/09/05 09:21:59;;;;;;;449.23;239.57;;;;;;;;;;5052814;28;20257;-52
2022/09/05 09:24:26;;;;;;;401.13;217.43;;;;;;;;;;5051684;28;20724;-53
2022/09/05 09:27:04;;;;;;;404.65;219.45;;;;;;;;;;5051543;28;20198;-53
2022/09/05 09:29:33;;;;;;;481.70;246.63;;;;;;;;;;5063927;28;20651;-53
2022/09/05 09:32:16;;;;;;;377.60;205.00;;;;;;;;;;5051505;28;20175;-53
2022/09/05 09:34:47;;;;;;;507.42;263.98;;;;;;;;;;5052843;28;20202;-53
2022/09/05 09:37:27;;;;;;;439.17;237.35;;;;;;;;;;5040764;28;20191;-53
2022/09/05 09:40:09;;;;;;;429.60;231.75;;;;;;;;;;5043265;28;20190;-53
2022/09/05 09:42:53;;;;;;;533.47;282.98;;;;;;;;;;5043025;28;20214;-53
2022/09/05 09:45:40;;;;;;;456.27;245.30;;;;;;;;;;5049376;28;20279;-53
2022/09/05 09:48:26;;;;;;;446.60;235.98;;;;;;;;;;5041124;28;20248;-52
2022/09/05 09:51:03;;;;;;;396.33;217.82;;;;;;;;;;5060739;28;20175;-52
2022/09/05 09:53:35;;;;;;;419.35;228.68;;;;;;;;;;5054694;28;20198;-52
2022/09/05 09:56:14;;;;;;;479.23;254.32;;;;;;;;;;5044338;28;20183;-53
2022/09/05 09:58:39;;;;;;;396.37;218.87;;;;;;;;;;5048181;28;20221;-53
2022/09/05 10:01:23;;;;;;;410.75;228.80;;;;;;;;;;5056140;28;20216;-53
2022/09/05 10:03:55;;;;;;;500.67;252.73;;;;;;;;;;5046732;28;20977;-53
2022/09/05 10:06:24;;;;;;;443.55;233.57;;;;;;;;;;5045892;28;20215;-53
2022/09/05 10:09:02;;;;;;;407.65;220.50;;;;;;;;;;5046093;28;20187;-53
2022/09/05 10:11:28;;;;;;;420.60;224.90;;;;;;;;;;5058185;28;20176;-53
2022/09/05 10:13:57;;;;;;;393.88;215.98;;;;;;;;;;5056424;28;20214;-54
2022/09/05 10:16:26;;;;;;;428.35;229.05;;;;;;;;;;5057109;28;20269;-53
2022/09/05 10:19:18;;;;;;;386.15;212.07;;;;;;;;;;5053982;28;20223;-54
2022/09/05 10:22:02;;;;;;;484.73;245.95;;;;;;;;;;5049968;28;20748;-53
2022/09/05 10:24:52;;;;;;;421.70;236.65;;;;;;;;;;5049553;28;20230;-53
2022/09/05 10:27:20;;;;;;;490.77;257.15;;;;;;;;;;5037442;28;22205;-53
2022/09/05 10:29:58;;;;;;;512.97;282.07;;;;;;;;;;5048258;28;20179;-53
2022/09/05 10:32:26;;;;;;;569.00;305.05;;;;;;;;;;5046534;28;20194;-54
2022/09/05 10:35:11;;;;;;;496.50;273.83;;;;;;;;;;5038241;28;20399;-51
2022/09/05 10:37:41;;;;;;;451.08;251.40;;;;;;;;;;5045980;28;20187;-52
2022/09/05 10:40:10;;;;;;;468.50;265.90;;;;;;;;;;5041811;28;20265;-51
2022/09/05 10:42:41;;;;;;;468.53;272.27;;;;;;;;;;5044876;28;20191;-51
2022/09/05 10:45:21;;;;;;;434.30;257.50;;;;;;;;;;5050311;28;20183;-51
2022/09/05 10:48:06;;;;;;;489.70;285.25;;;;;;;;;;5049069;28;20279;-50
2022/09/05 10:50:34;;;;;;;406.60;248.18;;;;;;;;;;5046580;28;20681;-51
2022/09/05 10:53:05;;;;;;;474.48;270.30;;;;;;;;;;5050474;28;20313;-51
2022/09/05 10:55:34;;;;;;;528.70;284.58;;;;;;;;;;5049349;28;20214;-51
2022/09/05 10:58:03;;;;;;;516.33;279.77;;;;;;;;;;5050314;28;20198;-51
2022/09/05 11:00:46;;;;;;;455.60;255.93;;;;;;;;;;5049761;28;20980;-51
2022/09/05 11:03:14;;;;;;;462.88;272.92;;;;;;;;;;5041655;28;21281;-51
2022/09/05 11:05:45;;;;;;;538.70;300.50;;;;;;;;;;5049188;28;20340;-53
2022/09/05 11:08:27;;;;;;;450.02;258.55;;;;;;;;;;5050924;28;20233;-52
2022/09/05 11:10:59;;;;;;;414.13;255.70;;;;;;;;;;5051110;28;20182;-52
2022/09/05 11:13:31;;;;;;;448.50;268.77;;;;;;;;;;5054735;28;20266;-52
2022/09/05 11:15:57;;;;;;;443.75;276.35;;;;;;;;;;5041884;28;20183;-52
2022/09/05 11:18:42;;;;;;;375.58;242.45;;;;;;;;;;5053092;28;20253;-52
2022/09/05 11:21:26;;;;;;;425.27;267.65;;;;;;;;;;5051560;28;20320;-52
2022/09/05 11:23:55;;;;;;;466.38;288.65;;;;;;;;;;5052275;28;22078;-52
2022/09/05 11:26:36;;;;;;;467.63;296.98;;;;;;;;;;5050961;28;23277;-52
2022/09/05 11:29:11;;;;;;;375.08;249.57;;;;;;;;;;5059658;28;20228;-52
2022/09/05 11:31:40;;;;;;;430.75;259.88;;;;;;;;;;5053418;28;20174;-51
2022/09/05 11:34:20;;;;;;;393.55;251.63;;;;;;;;;;5055089;28;20207;-52
2022/09/05 11:36:51;;;;;;;434.35;261.25;;;;;;;;;;5051476;28;20795;-52
2022/09/05 11:39:26;;;;;;;438.92;274.80;;;;;;;;;;5042179;28;20179;-52
2022/09/05 11:41:56;;;;;;;454.17;279.23;;;;;;;;;;5036248;28;20360;-52
2022/09/05 11:44:28;;;;;;;449.17;276.35;;;;;;;;;;5040634;28;20368;-52
2022/09/05 11:47:09;;;;;;;465.30;286.85;;;;;;;;;;5043922;28;20242;-52
2022/09/05 11:49:42;;;;;;;458.27;293.17;;;;;;;;;;5050727;28;20211;-52
2022/09/05 11:52:26;;;;;;;453.87;272.47;;;;;;;;;;5045250;28;20176;-52
2022/09/05 11:55:14;;;;;;;413.42;260.00;;;;;;;;;;5046793;28;20204;-52
2022/09/05 11:58:02;;;;;;;504.25;288.73;;;;;;;;;;5039249;28;20179;-52
2022/09/05 12:00:39;;;;;;;437.88;269.48;;;;;;;;;;5042305;28;20285;-52
2022/09/05 12:03:37;;;;;;;453.83;285.88;;;;;;;;;;5046982;28;20187;-52
2022/09/05 12:06:21;;;;;;;432.55;274.95;;;;;;;;;;5046132;28;20207;-52
2022/09/05 12:08:50;;;;;;;453.73;287.60;;;;;;;;;;5048690;28;20178;-52
2022/09/05 12:11:16;;;;;;;391.70;271.45;;;;;;;;;;5043122;28;20281;-52
2022/09/05 12:13:53;;;;;;;445.63;290.40;;;;;;;;;;5046994;28;20191;-52
2022/09/05 12:16:42;;;;;;;431.85;283.63;;;;;;;;;;5054750;28;20568;-52
2022/09/05 12:19:26;;;;;;;494.95;311.58;;;;;;;;;;5046835;28;20240;-53
2022/09/05 12:22:06;;;;;;;442.77;287.70;;;;;;;;;;5056621;28;20179;-53
2022/09/05 12:24:44;;;;;;;387.73;263.73;;;;;;;;;;5057069;28;20355;-52
2022/09/05 12:27:14;;;;;;;422.48;281.13;;;;;;;;;;5053296;28;20202;-52
2022/09/05 12:29:41;;;;;;;420.55;279.95;;;;;;;;;;5052100;28;20304;-52
2022/09/05 12:32:15;;;;;;;492.92;303.35;;;;;;;;;;5043885;28;20289;-52
2022/09/05 12:34:50;;;;;;;398.17;268.27;;;;;;;;;;5053177;28;20358;-52
2022/09/05 12:37:22;;;;;;;412.20;276.05;;;;;;;;;;5057912;28;20178;-53
2022/09/05 12:40:08;;;;;;;446.30;282.50;;;;;;;;;;5062067;28;20861;-52
2022/09/05 12:42:52;;;;;;;420.20;279.02;;;;;;;;;;5055349;28;25125;-52
2022/09/05 12:45:20;;;;;;;467.37;298.47;;;;;;;;;;5056471;28;20566;-52
2022/09/05 12:47:59;;;;;;;427.92;278.67;;;;;;;;;;5060706;28;20190;-52
2022/09/05 12:50:32;;;;;;;411.90;273.98;;;;;;;;;;5075768;28;20263;-52
2022/09/05 12:53:01;;;;;;;443.48;288.92;;;;;;;;;;5063375;28;20596;-52
2022/09/05 12:55:32;;;;;;;480.15;297.90;;;;;;;;;;5053444;28;21801;-52
2022/09/05 12:58:00;;;;;;;447.35;285.52;;;;;;;;;;5061290;28;21518;-52
2022/09/05 13:00:26;;;;;;;476.00;296.40;;;;;;;;;;5056751;28;20232;-52
2022/09/05 13:02:57;;;;;;;470.70;292.52;;;;;;;;;;5059399;28;20183;-52
2022/09/05 13:05:26;;;;;;;432.52;282.35;;;;;;;;;;5061363;28;20767;-52
2022/09/05 13:07:55;;;;;;;420.17;274.65;;;;;;;;;;5055799;28;20198;-52
2022/09/05 13:10:23;;;;;;;428.15;281.67;;;;;;;;;;5064737;28;20183;-52
2022/09/05 13:12:54;;;;;;;464.80;295.85;;;;;;;;;;5057737;28;20182;-53
2022/09/05 13:15:25;;;;;;;448.55;281.52;;;;;;;;;;5051736;28;20839;-53
2022/09/05 13:18:23;;;;;;;443.73;280.40;;;;;;;;;;5054844;28;20199;-53
2022/09/05 13:21:01;;;;;;;467.20;305.98;;;;;;;;;;5044118;28;20583;-53
2022/09/05 13:23:34;;;;;;;475.02;305.48;;;;;;;;;;5053937;28;20185;-53
2022/09/05 13:26:00;;;;;;;409.65;282.95;;;;;;;;;;5051713;28;20686;-53
2022/09/05 13:28:49;;;;;;;434.65;288.63;;;;;;;;;;5061062;28;20628;-53
2022/09/05 13:31:16;;;;;;;412.00;286.10;;;;;;;;;;5063000;28;20766;-53
2022/09/05 13:33:48;;;;;;;445.45;294.42;;;;;;;;;;5057741;28;20202;-53
2022/09/05 13:36:19;;;;;;;418.75;278.95;;;;;;;;;;5055949;28;20194;-53
2022/09/05 13:39:08;;;;;;;373.40;254.38;;;;;;;;;;5057317;28;20414;-53
2022/09/05 13:41:35;;;;;;;429.05;278.65;;;;;;;;;;5058126;28;20194;-53
2022/09/05 13:44:09;;;;;;;455.80;291.95;;;;;;;;;;5055195;28;20203;-53
2022/09/05 13:46:46;;;;;;;435.33;277.88;;;;;;;;;;5045494;28;20274;-53
2022/09/05 13:49:31;;;;;;;411.10;265.95;;;;;;;;;;5056717;28;20179;-54
2022/09/05 13:51:59;;;;;;;446.05;279.30;;;;;;;;;;5054027;28;20432;-53
2022/09/05 13:54:25;;;;;;;445.77;276.88;;;;;;;;;;5057882;28;20226;-53
2022/09/05 13:57:00;;;;;;;436.00;276.95;;;;;;;;;;5060915;28;20214;-53
2022/09/05 13:59:27;;;;;;;456.02;295.45;;;;;;;;;;5057799;28;20186;-53
2022/09/05 14:01:56;;;;;;;504.20;320.35;;;;;;;;;;5049815;28;20171;-53
2022/09/05 14:04:31;;;;;;;541.13;344.30;;;;;;;;;;5037941;28;20198;-53
2022/09/05 14:07:15;;;;;;;499.98;328.30;;;;;;;;;;5048943;28;20679;-53
2022/09/05 14:09:45;;;;;;;449.00;305.05;;;;;;;;;;5048239;28;20182;-53
2022/09/05 14:12:17;;;;;;;481.65;331.15;;;;;;;;;;5054041;28;20186;-53
2022/09/05 14:14:49;;;;;;;464.60;328.40;;;;;;;;;;5052429;28;20202;-53
2022/09/05 14:17:15;;;;;;;469.67;332.23;;;;;;;;;;5054662;28;20195;-54